sensor_id;sensor_type;location;lat;lon;timestamp;P1;durP1;ratioP1;P2;durP2;ratioP2
64842;SDS011;51310;52.198;5.422;2022-07-29T00:00:55;5.70;;;1.80;;
64842;SDS011;51310;52.198;5.422;2022-07-29T00:03:21;2.90;;;1.40;;
64842;SDS011;51310;52.198;5.422;2022-07-29T00:05:47;4.23;;;1.60;;
64842;SDS011;51310;52.198;5.422;2022-07-29T00:08:12;3.30;;;1.70;;
64842;SDS011;51310;52.198;5.422;2022-07-29T00:10:40;4.45;;;1.52;;
64842;SDS011;51310;52.198;5.422;2022-07-29T00:13:07;5.05;;;1.48;;
64842;SDS011;51310;52.198;5.422;2022-07-29T00:15:33;4.43;;;1.40;;
64842;SDS011;51310;52.198;5.422;2022-07-29T00:17:59;2.97;;;1.40;;
64842;SDS011;51310;52.198;5.422;2022-07-29T00:20:25;5.77;;;1.40;;
64842;SDS011;51310;52.198;5.422;2022-07-29T00:22:51;5.13;;;1.55;;
64842;SDS011;51310;52.198;5.422;2022-07-29T00:25:17;2.92;;;1.63;;
64842;SDS011;51310;52.198;5.422;2022-07-29T00:27:42;2.92;;;1.42;;
64842;SDS011;51310;52.198;5.422;2022-07-29T00:30:08;2.67;;;1.17;;
64842;SDS011;51310;52.198;5.422;2022-07-29T00:32:34;3.97;;;1.63;;
64842;SDS011;51310;52.198;5.422;2022-07-29T00:35:00;4.90;;;1.70;;
64842;SDS011;51310;52.198;5.422;2022-07-29T00:37:45;4.20;;;1.40;;
64842;SDS011;51310;52.198;5.422;2022-07-29T00:40:11;3.28;;;1.38;;
64842;SDS011;51310;52.198;5.422;2022-07-29T00:42:46;3.83;;;1.80;;
64842;SDS011;51310;52.198;5.422;2022-07-29T00:45:16;2.67;;;1.45;;
64842;SDS011;51310;52.198;5.422;2022-07-29T00:47:46;4.43;;;1.20;;
64842;SDS011;51310;52.198;5.422;2022-07-29T00:50:12;4.88;;;1.70;;
64842;SDS011;51310;52.198;5.422;2022-07-29T00:52:40;2.70;;;1.52;;
64842;SDS011;51310;52.198;5.422;2022-07-29T00:55:08;5.80;;;1.35;;
64842;SDS011;51310;52.198;5.422;2022-07-29T00:57:38;5.23;;;1.50;;
64842;SDS011;51310;52.198;5.422;2022-07-29T01:00:08;2.95;;;1.23;;
64842;SDS011;51310;52.198;5.422;2022-07-29T01:02:42;4.53;;;1.40;;
64842;SDS011;51310;52.198;5.422;2022-07-29T01:05:09;5.05;;;1.60;;
64842;SDS011;51310;52.198;5.422;2022-07-29T01:07:37;3.95;;;1.55;;
64842;SDS011;51310;52.198;5.422;2022-07-29T01:10:06;5.15;;;1.45;;
64842;SDS011;51310;52.198;5.422;2022-07-29T01:12:38;8.13;;;1.60;;
64842;SDS011;51310;52.198;5.422;2022-07-29T01:15:06;3.90;;;1.45;;
64842;SDS011;51310;52.198;5.422;2022-07-29T01:26:33;4.38;;;1.65;;
64842;SDS011;51310;52.198;5.422;2022-07-29T01:29:25;5.70;;;2.10;;
64842;SDS011;51310;52.198;5.422;2022-07-29T01:32:14;5.78;;;1.75;;
64842;SDS011;51310;52.198;5.422;2022-07-29T01:34:48;3.53;;;1.80;;
64842;SDS011;51310;52.198;5.422;2022-07-29T01:41:01;6.57;;;2.20;;
64842;SDS011;51310;52.198;5.422;2022-07-29T01:43:14;4.38;;;2.00;;
64842;SDS011;51310;52.198;5.422;2022-07-29T01:46:04;4.55;;;1.88;;
64842;SDS011;51310;52.198;5.422;2022-07-29T01:48:41;3.92;;;1.95;;
64842;SDS011;51310;52.198;5.422;2022-07-29T01:51:25;3.72;;;1.80;;
64842;SDS011;51310;52.198;5.422;2022-07-29T01:56:47;4.85;;;2.22;;
64842;SDS011;51310;52.198;5.422;2022-07-29T01:59:16;2.93;;;1.73;;
64842;SDS011;51310;52.198;5.422;2022-07-29T02:01:45;5.93;;;2.20;;
64842;SDS011;51310;52.198;5.422;2022-07-29T02:04:15;4.65;;;1.98;;
64842;SDS011;51310;52.198;5.422;2022-07-29T02:06:44;5.97;;;2.33;;
64842;SDS011;51310;52.198;5.422;2022-07-29T02:09:14;3.75;;;2.17;;
64842;SDS011;51310;52.198;5.422;2022-07-29T02:11:44;4.95;;;1.88;;
64842;SDS011;51310;52.198;5.422;2022-07-29T02:14:18;2.97;;;1.80;;
64842;SDS011;51310;52.198;5.422;2022-07-29T02:16:48;5.50;;;2.17;;
64842;SDS011;51310;52.198;5.422;2022-07-29T02:19:19;4.85;;;2.25;;
64842;SDS011;51310;52.198;5.422;2022-07-29T02:21:51;3.88;;;1.98;;
64842;SDS011;51310;52.198;5.422;2022-07-29T02:24:19;3.03;;;1.67;;
64842;SDS011;51310;52.198;5.422;2022-07-29T02:26:50;5.35;;;2.50;;
64842;SDS011;51310;52.198;5.422;2022-07-29T02:29:21;3.90;;;1.92;;
64842;SDS011;51310;52.198;5.422;2022-07-29T02:31:51;5.18;;;2.17;;
64842;SDS011;51310;52.198;5.422;2022-07-29T02:34:20;5.27;;;2.07;;
64842;SDS011;51310;52.198;5.422;2022-07-29T02:36:48;5.53;;;2.60;;
64842;SDS011;51310;52.198;5.422;2022-07-29T02:39:15;5.82;;;2.47;;
64842;SDS011;51310;52.198;5.422;2022-07-29T02:41:45;5.28;;;2.45;;
64842;SDS011;51310;52.198;5.422;2022-07-29T02:44:29;6.57;;;2.20;;
64842;SDS011;51310;52.198;5.422;2022-07-29T02:47:06;3.97;;;1.98;;
64842;SDS011;51310;52.198;5.422;2022-07-29T02:49:49;5.20;;;2.07;;
64842;SDS011;51310;52.198;5.422;2022-07-29T02:55:27;3.85;;;1.95;;
64842;SDS011;51310;52.198;5.422;2022-07-29T02:58:01;5.45;;;2.17;;
64842;SDS011;51310;52.198;5.422;2022-07-29T03:00:34;6.33;;;2.90;;
64842;SDS011;51310;52.198;5.422;2022-07-29T03:03:07;5.28;;;2.22;;
64842;SDS011;51310;52.198;5.422;2022-07-29T03:05:38;5.35;;;2.90;;
64842;SDS011;51310;52.198;5.422;2022-07-29T03:08:05;6.35;;;3.80;;
64842;SDS011;51310;52.198;5.422;2022-07-29T03:10:34;14.85;;;4.68;;
64842;SDS011;51310;52.198;5.422;2022-07-29T03:13:07;8.40;;;4.93;;
64842;SDS011;51310;52.198;5.422;2022-07-29T03:15:35;11.93;;;5.90;;
64842;SDS011;51310;52.198;5.422;2022-07-29T03:18:02;13.40;;;6.63;;
64842;SDS011;51310;52.198;5.422;2022-07-29T03:20:28;13.85;;;6.47;;
64842;SDS011;51310;52.198;5.422;2022-07-29T03:22:54;11.75;;;5.90;;
64842;SDS011;51310;52.198;5.422;2022-07-29T03:25:20;13.57;;;6.57;;
64842;SDS011;51310;52.198;5.422;2022-07-29T03:27:47;13.20;;;6.53;;
64842;SDS011;51310;52.198;5.422;2022-07-29T03:30:15;11.25;;;5.65;;
64842;SDS011;51310;52.198;5.422;2022-07-29T03:32:41;9.52;;;5.18;;
64842;SDS011;51310;52.198;5.422;2022-07-29T03:35:07;8.73;;;4.65;;
64842;SDS011;51310;52.198;5.422;2022-07-29T03:37:33;9.07;;;4.75;;
64842;SDS011;51310;52.198;5.422;2022-07-29T03:40:01;8.50;;;4.43;;
64842;SDS011;51310;52.198;5.422;2022-07-29T03:42:32;7.80;;;4.47;;
64842;SDS011;51310;52.198;5.422;2022-07-29T03:45:03;8.52;;;3.90;;
64842;SDS011;51310;52.198;5.422;2022-07-29T03:47:35;9.87;;;4.00;;
64842;SDS011;51310;52.198;5.422;2022-07-29T03:50:13;8.05;;;4.22;;
64842;SDS011;51310;52.198;5.422;2022-07-29T03:52:40;9.32;;;3.55;;
64842;SDS011;51310;52.198;5.422;2022-07-29T03:55:07;6.87;;;3.33;;
64842;SDS011;51310;52.198;5.422;2022-07-29T03:57:34;8.68;;;3.85;;
64842;SDS011;51310;52.198;5.422;2022-07-29T04:00:03;6.75;;;3.70;;
64842;SDS011;51310;52.198;5.422;2022-07-29T04:02:31;10.68;;;4.43;;
64842;SDS011;51310;52.198;5.422;2022-07-29T04:04:58;9.33;;;4.63;;
64842;SDS011;51310;52.198;5.422;2022-07-29T04:07:24;14.38;;;6.45;;
64842;SDS011;51310;52.198;5.422;2022-07-29T04:09:50;14.18;;;7.60;;
64842;SDS011;51310;52.198;5.422;2022-07-29T04:12:16;17.67;;;7.00;;
64842;SDS011;51310;52.198;5.422;2022-07-29T04:14:42;14.68;;;7.30;;
64842;SDS011;51310;52.198;5.422;2022-07-29T04:17:08;14.63;;;7.67;;
64842;SDS011;51310;52.198;5.422;2022-07-29T04:19:34;11.90;;;5.95;;
64842;SDS011;51310;52.198;5.422;2022-07-29T04:22:00;8.55;;;5.10;;
64842;SDS011;51310;52.198;5.422;2022-07-29T04:24:26;6.55;;;3.90;;
64842;SDS011;51310;52.198;5.422;2022-07-29T04:26:53;8.35;;;3.97;;
64842;SDS011;51310;52.198;5.422;2022-07-29T04:29:19;6.50;;;3.10;;
64842;SDS011;51310;52.198;5.422;2022-07-29T04:31:45;6.57;;;2.63;;
64842;SDS011;51310;52.198;5.422;2022-07-29T04:34:11;5.25;;;2.55;;
64842;SDS011;51310;52.198;5.422;2022-07-29T04:36:37;5.80;;;2.40;;
64842;SDS011;51310;52.198;5.422;2022-07-29T04:39:03;5.13;;;2.20;;
64842;SDS011;51310;52.198;5.422;2022-07-29T04:41:30;7.63;;;2.42;;
64842;SDS011;51310;52.198;5.422;2022-07-29T04:43:55;6.63;;;2.80;;
64842;SDS011;51310;52.198;5.422;2022-07-29T04:46:22;5.57;;;2.58;;
64842;SDS011;51310;52.198;5.422;2022-07-29T04:48:48;6.97;;;3.47;;
64842;SDS011;51310;52.198;5.422;2022-07-29T04:51:17;9.88;;;4.43;;
64842;SDS011;51310;52.198;5.422;2022-07-29T04:53:42;12.27;;;4.20;;
64842;SDS011;51310;52.198;5.422;2022-07-29T04:56:08;9.40;;;4.18;;
64842;SDS011;51310;52.198;5.422;2022-07-29T04:58:35;9.25;;;3.95;;
64842;SDS011;51310;52.198;5.422;2022-07-29T05:01:01;6.85;;;3.85;;
64842;SDS011;51310;52.198;5.422;2022-07-29T05:03:28;7.65;;;3.97;;
64842;SDS011;51310;52.198;5.422;2022-07-29T05:05:54;5.75;;;3.40;;
64842;SDS011;51310;52.198;5.422;2022-07-29T05:08:20;7.20;;;3.42;;
64842;SDS011;51310;52.198;5.422;2022-07-29T05:10:46;6.43;;;3.20;;
64842;SDS011;51310;52.198;5.422;2022-07-29T05:13:12;8.52;;;3.70;;
64842;SDS011;51310;52.198;5.422;2022-07-29T05:15:38;6.65;;;3.00;;
64842;SDS011;51310;52.198;5.422;2022-07-29T05:18:04;7.10;;;2.80;;
64842;SDS011;51310;52.198;5.422;2022-07-29T05:20:30;6.13;;;2.90;;
64842;SDS011;51310;52.198;5.422;2022-07-29T05:22:57;8.57;;;4.07;;
64842;SDS011;51310;52.198;5.422;2022-07-29T05:25:26;7.00;;;3.35;;
64842;SDS011;51310;52.198;5.422;2022-07-29T05:27:53;5.45;;;3.03;;
64842;SDS011;51310;52.198;5.422;2022-07-29T05:30:20;5.35;;;2.28;;
64842;SDS011;51310;52.198;5.422;2022-07-29T05:32:47;4.78;;;2.47;;
64842;SDS011;51310;52.198;5.422;2022-07-29T05:35:13;6.05;;;2.42;;
64842;SDS011;51310;52.198;5.422;2022-07-29T05:37:41;5.18;;;2.42;;
64842;SDS011;51310;52.198;5.422;2022-07-29T05:40:07;4.10;;;2.28;;
64842;SDS011;51310;52.198;5.422;2022-07-29T05:42:34;4.33;;;2.77;;
64842;SDS011;51310;52.198;5.422;2022-07-29T05:45:00;5.93;;;2.50;;
64842;SDS011;51310;52.198;5.422;2022-07-29T05:47:28;2.72;;;1.90;;
64842;SDS011;51310;52.198;5.422;2022-07-29T05:49:54;4.72;;;2.38;;
64842;SDS011;51310;52.198;5.422;2022-07-29T05:52:20;8.48;;;2.38;;
64842;SDS011;51310;52.198;5.422;2022-07-29T05:54:46;7.25;;;2.55;;
64842;SDS011;51310;52.198;5.422;2022-07-29T05:57:16;2.88;;;2.08;;
64842;SDS011;51310;52.198;5.422;2022-07-29T05:59:44;5.20;;;2.95;;
64842;SDS011;51310;52.198;5.422;2022-07-29T06:02:11;3.30;;;2.47;;
64842;SDS011;51310;52.198;5.422;2022-07-29T06:04:37;4.47;;;2.70;;
64842;SDS011;51310;52.198;5.422;2022-07-29T06:07:03;5.72;;;2.75;;
64842;SDS011;51310;52.198;5.422;2022-07-29T06:09:29;3.45;;;2.70;;
64842;SDS011;51310;52.198;5.422;2022-07-29T06:11:55;7.13;;;2.63;;
64842;SDS011;51310;52.198;5.422;2022-07-29T06:14:22;4.88;;;2.85;;
64842;SDS011;51310;52.198;5.422;2022-07-29T06:16:48;10.60;;;3.67;;
64842;SDS011;51310;52.198;5.422;2022-07-29T06:19:13;9.10;;;3.80;;
64842;SDS011;51310;52.198;5.422;2022-07-29T06:21:43;5.07;;;3.67;;
64842;SDS011;51310;52.198;5.422;2022-07-29T06:24:10;5.40;;;3.30;;
64842;SDS011;51310;52.198;5.422;2022-07-29T06:26:38;6.43;;;2.90;;
64842;SDS011;51310;52.198;5.422;2022-07-29T06:29:08;5.82;;;2.60;;
64842;SDS011;51310;52.198;5.422;2022-07-29T06:31:39;11.27;;;3.53;;
64842;SDS011;51310;52.198;5.422;2022-07-29T06:34:05;7.75;;;3.00;;
64842;SDS011;51310;52.198;5.422;2022-07-29T06:36:34;6.10;;;2.35;;
64842;SDS011;51310;52.198;5.422;2022-07-29T06:39:03;5.43;;;2.20;;
64842;SDS011;51310;52.198;5.422;2022-07-29T06:41:33;8.98;;;2.50;;
64842;SDS011;51310;52.198;5.422;2022-07-29T06:43:59;8.13;;;2.60;;
64842;SDS011;51310;52.198;5.422;2022-07-29T06:46:25;5.67;;;2.47;;
64842;SDS011;51310;52.198;5.422;2022-07-29T06:48:52;4.40;;;2.53;;
64842;SDS011;51310;52.198;5.422;2022-07-29T06:51:18;8.38;;;2.55;;
64842;SDS011;51310;52.198;5.422;2022-07-29T06:53:45;4.65;;;2.30;;
64842;SDS011;51310;52.198;5.422;2022-07-29T06:56:11;5.83;;;2.50;;
64842;SDS011;51310;52.198;5.422;2022-07-29T06:58:38;5.72;;;2.22;;
64842;SDS011;51310;52.198;5.422;2022-07-29T07:01:05;4.88;;;2.17;;
64842;SDS011;51310;52.198;5.422;2022-07-29T07:03:32;5.70;;;2.70;;
64842;SDS011;51310;52.198;5.422;2022-07-29T07:05:58;5.65;;;2.70;;
64842;SDS011;51310;52.198;5.422;2022-07-29T07:08:25;3.47;;;2.00;;
64842;SDS011;51310;52.198;5.422;2022-07-29T07:10:51;4.70;;;2.03;;
64842;SDS011;51310;52.198;5.422;2022-07-29T07:13:17;8.57;;;2.60;;
64842;SDS011;51310;52.198;5.422;2022-07-29T07:15:44;7.28;;;2.17;;
64842;SDS011;51310;52.198;5.422;2022-07-29T07:18:12;4.18;;;2.03;;
64842;SDS011;51310;52.198;5.422;2022-07-29T07:20:39;5.60;;;2.65;;
64842;SDS011;51310;52.198;5.422;2022-07-29T07:23:06;5.13;;;2.33;;
64842;SDS011;51310;52.198;5.422;2022-07-29T07:25:32;6.25;;;2.15;;
64842;SDS011;51310;52.198;5.422;2022-07-29T07:27:58;4.90;;;2.58;;
64842;SDS011;51310;52.198;5.422;2022-07-29T07:30:25;8.27;;;2.40;;
64842;SDS011;51310;52.198;5.422;2022-07-29T07:32:52;5.68;;;2.28;;
64842;SDS011;51310;52.198;5.422;2022-07-29T07:35:19;5.70;;;2.58;;
64842;SDS011;51310;52.198;5.422;2022-07-29T07:37:45;3.40;;;1.95;;
64842;SDS011;51310;52.198;5.422;2022-07-29T07:40:11;4.40;;;2.00;;
64842;SDS011;51310;52.198;5.422;2022-07-29T07:42:38;4.05;;;2.10;;
64842;SDS011;51310;52.198;5.422;2022-07-29T07:45:05;4.95;;;2.30;;
64842;SDS011;51310;52.198;5.422;2022-07-29T07:47:36;4.13;;;2.20;;
64842;SDS011;51310;52.198;5.422;2022-07-29T07:50:07;4.93;;;2.23;;
64842;SDS011;51310;52.198;5.422;2022-07-29T07:52:45;4.20;;;2.50;;
64842;SDS011;51310;52.198;5.422;2022-07-29T07:55:15;6.93;;;2.38;;
64842;SDS011;51310;52.198;5.422;2022-07-29T07:57:41;3.85;;;2.20;;
64842;SDS011;51310;52.198;5.422;2022-07-29T08:00:07;5.03;;;2.33;;
64842;SDS011;51310;52.198;5.422;2022-07-29T08:02:34;5.15;;;2.50;;
64842;SDS011;51310;52.198;5.422;2022-07-29T08:05:00;6.13;;;2.40;;
64842;SDS011;51310;52.198;5.422;2022-07-29T08:07:25;8.90;;;2.57;;
64842;SDS011;51310;52.198;5.422;2022-07-29T08:09:51;5.25;;;2.25;;
64842;SDS011;51310;52.198;5.422;2022-07-29T08:12:17;3.72;;;2.30;;
64842;SDS011;51310;52.198;5.422;2022-07-29T08:14:43;6.90;;;2.50;;
64842;SDS011;51310;52.198;5.422;2022-07-29T08:17:09;6.07;;;2.60;;
64842;SDS011;51310;52.198;5.422;2022-07-29T08:19:35;3.83;;;2.60;;
64842;SDS011;51310;52.198;5.422;2022-07-29T08:22:02;4.80;;;2.60;;
64842;SDS011;51310;52.198;5.422;2022-07-29T08:24:28;6.97;;;2.92;;
64842;SDS011;51310;52.198;5.422;2022-07-29T08:27:11;4.30;;;2.38;;
64842;SDS011;51310;52.198;5.422;2022-07-29T08:29:38;4.22;;;2.50;;
64842;SDS011;51310;52.198;5.422;2022-07-29T08:32:05;7.50;;;3.55;;
64842;SDS011;51310;52.198;5.422;2022-07-29T08:34:31;10.73;;;3.22;;
64842;SDS011;51310;52.198;5.422;2022-07-29T08:36:58;6.38;;;3.10;;
64842;SDS011;51310;52.198;5.422;2022-07-29T08:39:24;5.15;;;2.63;;
64842;SDS011;51310;52.198;5.422;2022-07-29T08:41:50;5.10;;;2.97;;
64842;SDS011;51310;52.198;5.422;2022-07-29T08:44:17;4.25;;;2.42;;
64842;SDS011;51310;52.198;5.422;2022-07-29T08:46:44;6.78;;;3.08;;
64842;SDS011;51310;52.198;5.422;2022-07-29T08:49:10;4.32;;;2.88;;
64842;SDS011;51310;52.198;5.422;2022-07-29T08:51:36;4.00;;;2.50;;
64842;SDS011;51310;52.198;5.422;2022-07-29T08:54:06;8.43;;;2.83;;
64842;SDS011;51310;52.198;5.422;2022-07-29T08:56:35;6.28;;;2.45;;
64842;SDS011;51310;52.198;5.422;2022-07-29T08:59:03;5.37;;;2.57;;
64842;SDS011;51310;52.198;5.422;2022-07-29T09:01:32;7.10;;;2.60;;
64842;SDS011;51310;52.198;5.422;2022-07-29T09:04:03;4.80;;;2.60;;
64842;SDS011;51310;52.198;5.422;2022-07-29T09:06:36;4.55;;;2.72;;
64842;SDS011;51310;52.198;5.422;2022-07-29T09:09:09;4.47;;;2.50;;
64842;SDS011;51310;52.198;5.422;2022-07-29T09:11:36;5.38;;;2.55;;
64842;SDS011;51310;52.198;5.422;2022-07-29T09:14:02;4.63;;;2.28;;
64842;SDS011;51310;52.198;5.422;2022-07-29T09:19:32;5.15;;;2.40;;
64842;SDS011;51310;52.198;5.422;2022-07-29T09:22:05;4.38;;;2.42;;
64842;SDS011;51310;52.198;5.422;2022-07-29T09:27:23;5.15;;;2.63;;
64842;SDS011;51310;52.198;5.422;2022-07-29T09:30:07;6.97;;;2.80;;
64842;SDS011;51310;52.198;5.422;2022-07-29T09:32:55;7.20;;;3.08;;
64842;SDS011;51310;52.198;5.422;2022-07-29T09:35:28;6.03;;;3.13;;
64842;SDS011;51310;52.198;5.422;2022-07-29T09:37:55;6.72;;;3.25;;
64842;SDS011;51310;52.198;5.422;2022-07-29T09:40:22;7.05;;;3.20;;
64842;SDS011;51310;52.198;5.422;2022-07-29T09:42:52;5.65;;;2.63;;
64842;SDS011;51310;52.198;5.422;2022-07-29T09:45:29;7.07;;;3.08;;
64842;SDS011;51310;52.198;5.422;2022-07-29T09:47:58;10.68;;;3.03;;
64842;SDS011;51310;52.198;5.422;2022-07-29T09:50:46;7.85;;;3.33;;
64842;SDS011;51310;52.198;5.422;2022-07-29T09:56:02;4.88;;;2.97;;
64842;SDS011;51310;52.198;5.422;2022-07-29T09:58:29;6.07;;;3.35;;
64842;SDS011;51310;52.198;5.422;2022-07-29T10:00:58;7.25;;;3.38;;
64842;SDS011;51310;52.198;5.422;2022-07-29T10:03:24;14.68;;;3.47;;
64842;SDS011;51310;52.198;5.422;2022-07-29T10:06:10;5.87;;;3.23;;
64842;SDS011;51310;52.198;5.422;2022-07-29T10:08:38;8.30;;;3.40;;
64842;SDS011;51310;52.198;5.422;2022-07-29T10:11:10;14.75;;;3.40;;
64842;SDS011;51310;52.198;5.422;2022-07-29T10:13:40;6.80;;;3.40;;
64842;SDS011;51310;52.198;5.422;2022-07-29T10:16:08;4.47;;;3.80;;
64842;SDS011;51310;52.198;5.422;2022-07-29T10:18:35;4.63;;;3.40;;
64842;SDS011;51310;52.198;5.422;2022-07-29T10:21:06;9.25;;;3.97;;
64842;SDS011;51310;52.198;5.422;2022-07-29T10:23:34;4.97;;;3.80;;
64842;SDS011;51310;52.198;5.422;2022-07-29T10:26:01;10.80;;;4.13;;
64842;SDS011;51310;52.198;5.422;2022-07-29T10:28:30;8.38;;;3.83;;
64842;SDS011;51310;52.198;5.422;2022-07-29T10:31:00;6.60;;;3.97;;
64842;SDS011;51310;52.198;5.422;2022-07-29T10:33:47;8.57;;;3.90;;
64842;SDS011;51310;52.198;5.422;2022-07-29T10:39:41;8.15;;;3.88;;
64842;SDS011;51310;52.198;5.422;2022-07-29T10:42:25;4.22;;;3.25;;
64842;SDS011;51310;52.198;5.422;2022-07-29T10:44:55;7.88;;;3.35;;
64842;SDS011;51310;52.198;5.422;2022-07-29T10:47:25;10.13;;;4.40;;
64842;SDS011;51310;52.198;5.422;2022-07-29T10:49:58;8.38;;;3.75;;
64842;SDS011;51310;52.198;5.422;2022-07-29T10:58:11;6.18;;;3.70;;
64842;SDS011;51310;52.198;5.422;2022-07-29T11:00:38;6.35;;;3.22;;
64842;SDS011;51310;52.198;5.422;2022-07-29T11:03:04;7.40;;;3.50;;
64842;SDS011;51310;52.198;5.422;2022-07-29T11:05:30;7.43;;;4.18;;
64842;SDS011;51310;52.198;5.422;2022-07-29T11:08:19;7.82;;;2.95;;
64842;SDS011;51310;52.198;5.422;2022-07-29T11:10:48;7.55;;;3.38;;
64842;SDS011;51310;52.198;5.422;2022-07-29T11:16:08;8.45;;;3.10;;
64842;SDS011;51310;52.198;5.422;2022-07-29T11:18:35;8.80;;;2.85;;
64842;SDS011;51310;52.198;5.422;2022-07-29T11:21:00;5.65;;;2.72;;
64842;SDS011;51310;52.198;5.422;2022-07-29T11:23:28;4.85;;;2.30;;
64842;SDS011;51310;52.198;5.422;2022-07-29T11:28:51;4.93;;;2.22;;
64842;SDS011;51310;52.198;5.422;2022-07-29T11:31:32;8.50;;;2.10;;
64842;SDS011;51310;52.198;5.422;2022-07-29T11:39:34;8.75;;;3.10;;
64842;SDS011;51310;52.198;5.422;2022-07-29T11:47:25;4.90;;;2.60;;
64842;SDS011;51310;52.198;5.422;2022-07-29T11:49:54;7.20;;;2.95;;
64842;SDS011;51310;52.198;5.422;2022-07-29T11:52:22;5.60;;;2.95;;
64842;SDS011;51310;52.198;5.422;2022-07-29T11:55:03;8.38;;;2.95;;
64842;SDS011;51310;52.198;5.422;2022-07-29T14:01:25;6.05;;;2.92;;
64842;SDS011;51310;52.198;5.422;2022-07-29T14:03:52;7.13;;;3.30;;
64842;SDS011;51310;52.198;5.422;2022-07-29T14:06:18;5.93;;;3.67;;
64842;SDS011;51310;52.198;5.422;2022-07-29T14:08:46;7.60;;;2.88;;
64842;SDS011;51310;52.198;5.422;2022-07-29T14:11:12;5.70;;;3.47;;
64842;SDS011;51310;52.198;5.422;2022-07-29T14:13:41;9.00;;;3.78;;
64842;SDS011;51310;52.198;5.422;2022-07-29T14:16:07;7.53;;;3.55;;
64842;SDS011;51310;52.198;5.422;2022-07-29T14:18:33;9.90;;;4.40;;
64842;SDS011;51310;52.198;5.422;2022-07-29T14:20:59;9.27;;;4.07;;
64842;SDS011;51310;52.198;5.422;2022-07-29T14:23:25;8.05;;;4.38;;
64842;SDS011;51310;52.198;5.422;2022-07-29T14:25:51;16.52;;;3.83;;
64842;SDS011;51310;52.198;5.422;2022-07-29T14:28:16;8.40;;;3.92;;
64842;SDS011;51310;52.198;5.422;2022-07-29T14:30:42;8.05;;;4.95;;
64842;SDS011;51310;52.198;5.422;2022-07-29T14:33:11;7.38;;;4.57;;
64842;SDS011;51310;52.198;5.422;2022-07-29T14:35:37;11.13;;;5.10;;
64842;SDS011;51310;52.198;5.422;2022-07-29T14:38:03;8.45;;;4.28;;
64842;SDS011;51310;52.198;5.422;2022-07-29T14:40:29;10.33;;;4.80;;
64842;SDS011;51310;52.198;5.422;2022-07-29T14:42:55;15.60;;;4.93;;
64842;SDS011;51310;52.198;5.422;2022-07-29T14:45:20;7.87;;;4.70;;
64842;SDS011;51310;52.198;5.422;2022-07-29T14:47:47;12.18;;;4.72;;
64842;SDS011;51310;52.198;5.422;2022-07-29T14:50:15;11.90;;;3.75;;
64842;SDS011;51310;52.198;5.422;2022-07-29T14:52:41;7.80;;;4.82;;
64842;SDS011;51310;52.198;5.422;2022-07-29T14:55:07;9.70;;;3.90;;
64842;SDS011;51310;52.198;5.422;2022-07-29T14:57:34;5.72;;;3.63;;
64842;SDS011;51310;52.198;5.422;2022-07-29T15:00:00;7.28;;;3.35;;
64842;SDS011;51310;52.198;5.422;2022-07-29T15:02:28;8.68;;;3.05;;
64842;SDS011;51310;52.198;5.422;2022-07-29T15:04:54;6.50;;;3.20;;
64842;SDS011;51310;52.198;5.422;2022-07-29T15:07:20;5.68;;;2.60;;
64842;SDS011;51310;52.198;5.422;2022-07-29T15:09:46;9.00;;;3.17;;
64842;SDS011;51310;52.198;5.422;2022-07-29T15:12:12;5.68;;;2.50;;
64842;SDS011;51310;52.198;5.422;2022-07-29T15:14:41;4.13;;;2.17;;
64842;SDS011;51310;52.198;5.422;2022-07-29T15:17:07;6.75;;;2.50;;
64842;SDS011;51310;52.198;5.422;2022-07-29T15:19:33;4.40;;;2.10;;
64842;SDS011;51310;52.198;5.422;2022-07-29T15:21:59;2.85;;;1.60;;
64842;SDS011;51310;52.198;5.422;2022-07-29T15:24:29;7.30;;;2.45;;
64842;SDS011;51310;52.198;5.422;2022-07-29T15:26:55;7.13;;;3.05;;
64842;SDS011;51310;52.198;5.422;2022-07-29T15:29:21;4.90;;;2.00;;
64842;SDS011;51310;52.198;5.422;2022-07-29T15:31:47;4.17;;;1.90;;
64842;SDS011;51310;52.198;5.422;2022-07-29T15:34:16;5.40;;;2.20;;
64842;SDS011;51310;52.198;5.422;2022-07-29T15:36:45;3.95;;;1.70;;
64842;SDS011;51310;52.198;5.422;2022-07-29T15:39:11;6.95;;;1.92;;
64842;SDS011;51310;52.198;5.422;2022-07-29T15:41:37;4.63;;;1.77;;
64842;SDS011;51310;52.198;5.422;2022-07-29T15:44:03;5.65;;;1.85;;
64842;SDS011;51310;52.198;5.422;2022-07-29T15:46:29;6.07;;;1.75;;
64842;SDS011;51310;52.198;5.422;2022-07-29T15:49:13;6.22;;;1.45;;
64842;SDS011;51310;52.198;5.422;2022-07-29T15:51:40;5.47;;;1.90;;
64842;SDS011;51310;52.198;5.422;2022-07-29T15:54:06;3.65;;;1.88;;
64842;SDS011;51310;52.198;5.422;2022-07-29T15:56:32;5.40;;;2.10;;
64842;SDS011;51310;52.198;5.422;2022-07-29T15:58:58;4.03;;;1.85;;
64842;SDS011;51310;52.198;5.422;2022-07-29T16:01:24;6.97;;;1.50;;
64842;SDS011;51310;52.198;5.422;2022-07-29T16:03:50;5.70;;;2.10;;
64842;SDS011;51310;52.198;5.422;2022-07-29T16:06:17;5.40;;;1.88;;
64842;SDS011;51310;52.198;5.422;2022-07-29T16:08:43;3.10;;;1.60;;
64842;SDS011;51310;52.198;5.422;2022-07-29T16:11:12;3.70;;;1.55;;
64842;SDS011;51310;52.198;5.422;2022-07-29T16:13:38;4.78;;;1.30;;
64842;SDS011;51310;52.198;5.422;2022-07-29T16:16:03;6.55;;;2.05;;
64842;SDS011;51310;52.198;5.422;2022-07-29T16:18:32;5.63;;;1.80;;
64842;SDS011;51310;52.198;5.422;2022-07-29T16:20:58;4.43;;;1.60;;
64842;SDS011;51310;52.198;5.422;2022-07-29T16:23:24;5.07;;;1.52;;
64842;SDS011;51310;52.198;5.422;2022-07-29T16:25:50;2.88;;;1.52;;
64842;SDS011;51310;52.198;5.422;2022-07-29T16:28:16;4.15;;;1.80;;
64842;SDS011;51310;52.198;5.422;2022-07-29T16:30:42;6.88;;;1.85;;
64842;SDS011;51310;52.198;5.422;2022-07-29T16:33:15;5.47;;;1.50;;
64842;SDS011;51310;52.198;5.422;2022-07-29T16:35:41;6.22;;;2.10;;
64842;SDS011;51310;52.198;5.422;2022-07-29T16:38:07;3.78;;;1.83;;
64842;SDS011;51310;52.198;5.422;2022-07-29T16:40:33;4.05;;;1.95;;
64842;SDS011;51310;52.198;5.422;2022-07-29T16:42:59;4.85;;;1.60;;
64842;SDS011;51310;52.198;5.422;2022-07-29T16:45:25;3.75;;;1.65;;
64842;SDS011;51310;52.198;5.422;2022-07-29T16:47:52;7.00;;;1.80;;
64842;SDS011;51310;52.198;5.422;2022-07-29T16:50:18;5.28;;;2.10;;
64842;SDS011;51310;52.198;5.422;2022-07-29T16:52:50;6.90;;;2.40;;
64842;SDS011;51310;52.198;5.422;2022-07-29T16:55:16;4.15;;;1.90;;
64842;SDS011;51310;52.198;5.422;2022-07-29T16:57:41;5.18;;;1.80;;
64842;SDS011;51310;52.198;5.422;2022-07-29T17:00:08;8.00;;;2.30;;
64842;SDS011;51310;52.198;5.422;2022-07-29T17:02:36;4.18;;;1.60;;
64842;SDS011;51310;52.198;5.422;2022-07-29T17:05:02;6.18;;;2.63;;
64842;SDS011;51310;52.198;5.422;2022-07-29T17:07:34;4.87;;;1.53;;
64842;SDS011;51310;52.198;5.422;2022-07-29T17:10:01;4.05;;;1.70;;
64842;SDS011;51310;52.198;5.422;2022-07-29T17:12:29;5.95;;;2.00;;
64842;SDS011;51310;52.198;5.422;2022-07-29T17:14:56;3.90;;;1.70;;
64842;SDS011;51310;52.198;5.422;2022-07-29T17:17:22;6.33;;;2.13;;
64842;SDS011;51310;52.198;5.422;2022-07-29T17:19:48;5.13;;;1.80;;
64842;SDS011;51310;52.198;5.422;2022-07-29T17:22:14;12.87;;;2.00;;
64842;SDS011;51310;52.198;5.422;2022-07-29T17:24:39;4.70;;;1.60;;
64842;SDS011;51310;52.198;5.422;2022-07-29T17:27:06;4.03;;;1.60;;
64842;SDS011;51310;52.198;5.422;2022-07-29T17:29:33;4.53;;;1.90;;
64842;SDS011;51310;52.198;5.422;2022-07-29T17:32:00;4.78;;;1.75;;
64842;SDS011;51310;52.198;5.422;2022-07-29T17:34:25;3.47;;;1.67;;
64842;SDS011;51310;52.198;5.422;2022-07-29T17:36:51;6.13;;;1.75;;
64842;SDS011;51310;52.198;5.422;2022-07-29T17:39:17;4.27;;;1.60;;
64842;SDS011;51310;52.198;5.422;2022-07-29T17:41:43;3.47;;;1.77;;
64842;SDS011;51310;52.198;5.422;2022-07-29T17:44:10;3.65;;;1.75;;
64842;SDS011;51310;52.198;5.422;2022-07-29T17:46:37;4.70;;;1.60;;
64842;SDS011;51310;52.198;5.422;2022-07-29T17:49:04;5.47;;;1.92;;